createdAt,value
2017-06-25T00:00:53.519Z,4.60
2017-06-25T00:03:22.671Z,4.30
2017-06-25T00:05:51.838Z,4.10
2017-06-25T00:08:20.995Z,5.10
2017-06-25T00:10:50.153Z,4.93
2017-06-25T00:13:19.318Z,5.07
2017-06-25T00:15:48.561Z,5.83
2017-06-25T00:18:17.694Z,5.65
2017-06-25T00:20:46.872Z,5.20
2017-06-25T00:23:16.024Z,4.55
2017-06-25T00:25:45.184Z,4.70
2017-06-25T00:28:14.337Z,5.30
2017-06-25T00:30:43.501Z,5.68
2017-06-25T00:33:12.656Z,5.55
2017-06-25T00:35:41.819Z,5.35
2017-06-25T00:38:10.970Z,4.70
2017-06-25T00:40:40.122Z,4.53
2017-06-25T00:43:09.274Z,3.33
2017-06-25T00:45:38.426Z,3.60
2017-06-25T00:48:07.591Z,3.30
2017-06-25T00:50:36.747Z,3.60
2017-06-25T00:53:25.606Z,3.95
2017-06-25T00:55:54.762Z,3.80
2017-06-25T00:58:23.924Z,3.50
2017-06-25T01:00:53.062Z,3.90
2017-06-25T01:03:22.222Z,3.20
2017-06-25T01:05:51.377Z,3.60
2017-06-25T01:08:20.537Z,3.40
2017-06-25T01:10:49.687Z,3.67
2017-06-25T01:13:18.837Z,4.00
2017-06-25T01:15:47.987Z,4.20
2017-06-25T01:18:17.137Z,3.75
2017-06-25T01:20:46.303Z,3.75
2017-06-25T01:23:15.455Z,4.15
2017-06-25T01:25:44.602Z,3.60
2017-06-25T01:28:13.762Z,4.12
2017-06-25T01:30:43.008Z,3.75
2017-06-25T01:33:12.142Z,3.60
2017-06-25T01:35:41.298Z,4.30
2017-06-25T01:38:10.465Z,3.43
2017-06-25T01:40:39.617Z,4.15
2017-06-25T01:43:08.782Z,3.80
2017-06-25T01:45:37.927Z,3.78
2017-06-25T01:48:07.089Z,4.57
2017-06-25T01:50:36.260Z,3.53
2017-06-25T01:53:05.406Z,3.92
2017-06-25T01:55:34.558Z,4.35
2017-06-25T01:58:03.714Z,3.90
2017-06-25T02:00:32.862Z,3.80
2017-06-25T02:03:02.022Z,3.62
2017-06-25T02:05:31.184Z,4.40
2017-06-25T02:08:00.338Z,3.62
2017-06-25T02:10:29.486Z,3.80
2017-06-25T02:12:58.647Z,3.70
2017-06-25T02:15:27.803Z,3.95
2017-06-25T02:17:56.953Z,3.80
2017-06-25T02:20:26.151Z,4.12
2017-06-25T02:22:55.291Z,3.47
2017-06-25T02:25:24.455Z,3.60
2017-06-25T02:27:53.616Z,3.80
2017-06-25T02:30:22.760Z,3.25
2017-06-25T02:32:51.915Z,3.87
2017-06-25T02:35:21.066Z,3.57
2017-06-25T02:37:50.224Z,4.10
2017-06-25T02:40:19.365Z,4.10
2017-06-25T02:42:48.525Z,4.00
2017-06-25T02:45:17.677Z,4.40
2017-06-25T02:47:46.826Z,3.80
2017-06-25T02:50:15.973Z,3.70
2017-06-25T02:52:45.119Z,3.53
2017-06-25T02:55:14.269Z,4.27
2017-06-25T02:57:43.410Z,3.70
2017-06-25T03:00:12.568Z,3.70
2017-06-25T03:02:41.722Z,3.85
2017-06-25T03:05:10.876Z,4.78
2017-06-25T03:07:40.018Z,3.63
2017-06-25T03:10:09.174Z,3.25
2017-06-25T03:12:38.313Z,3.67
2017-06-25T03:15:07.490Z,3.90
2017-06-25T03:17:36.630Z,3.20
2017-06-25T03:20:05.786Z,3.60
2017-06-25T03:22:34.955Z,3.53
2017-06-25T03:25:04.100Z,3.80
2017-06-25T03:27:33.260Z,3.97
2017-06-25T03:30:02.415Z,3.30
2017-06-25T03:32:31.566Z,3.50
2017-06-25T03:35:00.715Z,3.20
2017-06-25T03:37:29.878Z,3.75
2017-06-25T03:39:59.030Z,3.47
2017-06-25T03:42:28.170Z,3.40
2017-06-25T03:44:57.322Z,3.83
2017-06-25T03:47:26.469Z,4.50
2017-06-25T03:49:55.617Z,3.37
2017-06-25T03:52:24.766Z,3.80
2017-06-25T03:54:53.922Z,3.90
2017-06-25T03:57:23.083Z,3.58
2017-06-25T03:59:52.231Z,3.58
2017-06-25T04:02:21.387Z,3.93
2017-06-25T04:04:50.547Z,3.87
2017-06-25T04:07:19.711Z,3.55
2017-06-25T04:09:48.863Z,3.43
2017-06-25T04:12:18.015Z,3.80
2017-06-25T04:14:47.174Z,3.40
2017-06-25T04:17:16.350Z,4.12
2017-06-25T04:19:45.503Z,3.57
2017-06-25T04:22:14.641Z,3.70
2017-06-25T04:24:43.797Z,3.70
2017-06-25T04:27:12.939Z,5.27
2017-06-25T04:29:42.105Z,3.50
2017-06-25T04:32:11.249Z,3.90
2017-06-25T04:34:40.404Z,3.90
2017-06-25T04:37:09.542Z,3.60
2017-06-25T04:39:38.706Z,3.50
2017-06-25T04:42:07.866Z,4.15
2017-06-25T04:44:37.015Z,4.28
2017-06-25T04:47:06.174Z,4.57
2017-06-25T04:49:35.310Z,3.53
2017-06-25T04:52:04.458Z,4.30
2017-06-25T04:54:33.616Z,3.53
2017-06-25T04:57:02.766Z,3.90
2017-06-25T04:59:31.911Z,3.80
2017-06-25T05:02:01.053Z,3.80
2017-06-25T05:04:30.203Z,3.90
2017-06-25T05:06:59.370Z,4.30
2017-06-25T05:09:28.508Z,3.55
2017-06-25T05:11:57.868Z,4.00
2017-06-25T05:14:26.994Z,4.10
2017-06-25T05:16:56.127Z,3.97
2017-06-25T05:19:25.284Z,4.07
2017-06-25T05:21:54.440Z,3.60
2017-06-25T05:24:23.585Z,3.50
2017-06-25T05:26:52.737Z,3.37
2017-06-25T05:29:21.881Z,4.07
2017-06-25T05:31:51.040Z,3.80
2017-06-25T05:34:20.189Z,3.97
2017-06-25T05:36:49.369Z,4.20
2017-06-25T05:39:18.503Z,3.50
2017-06-25T05:41:47.656Z,4.00
2017-06-25T05:44:16.818Z,4.10
2017-06-25T05:46:45.958Z,4.07
2017-06-25T05:49:15.094Z,4.40
2017-06-25T05:51:44.264Z,4.63
2017-06-25T05:54:13.404Z,4.00
2017-06-25T05:56:42.573Z,4.67
2017-06-25T05:59:11.717Z,4.20
2017-06-25T06:01:40.893Z,3.87
2017-06-25T06:04:10.079Z,4.10
2017-06-25T06:06:39.253Z,4.00
2017-06-25T06:09:08.403Z,3.57
2017-06-25T06:11:37.538Z,4.60
2017-06-25T06:14:06.703Z,3.63
2017-06-25T06:16:35.858Z,3.83
2017-06-25T06:19:05.007Z,3.93
2017-06-25T06:21:34.168Z,3.97
2017-06-25T06:24:03.327Z,3.60
2017-06-25T06:26:32.458Z,3.93
2017-06-25T06:29:01.613Z,3.63
2017-06-25T06:31:30.763Z,4.57
2017-06-25T06:33:59.913Z,4.73
2017-06-25T06:36:29.097Z,3.43
2017-06-25T06:38:58.247Z,3.90
2017-06-25T06:41:27.423Z,5.30
2017-06-25T06:43:56.551Z,4.60
2017-06-25T06:46:25.702Z,4.10
2017-06-25T06:48:54.830Z,4.60
2017-06-25T06:51:24.005Z,4.10
2017-06-25T06:53:53.154Z,4.30
2017-06-25T06:56:22.296Z,4.03
2017-06-25T06:58:51.445Z,4.43
2017-06-25T07:01:20.596Z,4.20
2017-06-25T07:03:49.738Z,3.80
2017-06-25T07:06:18.992Z,4.70
2017-06-25T07:08:48.135Z,4.40
2017-06-25T07:11:17.292Z,3.83
2017-06-25T07:13:46.449Z,4.27
2017-06-25T07:16:15.583Z,3.93
2017-06-25T07:18:44.747Z,4.77
2017-06-25T07:21:13.899Z,4.00
2017-06-25T07:23:43.052Z,4.00
2017-06-25T07:26:12.220Z,4.30
2017-06-25T07:28:41.364Z,4.20
2017-06-25T07:31:10.516Z,4.20
2017-06-25T07:33:39.648Z,3.87
2017-06-25T07:36:08.848Z,4.77
2017-06-25T07:38:37.997Z,4.30
2017-06-25T07:41:07.149Z,4.30
2017-06-25T07:43:36.294Z,4.37
2017-06-25T07:46:05.451Z,4.10
2017-06-25T07:48:34.594Z,4.10
2017-06-25T07:51:03.755Z,4.07
2017-06-25T07:53:32.958Z,3.90
2017-06-25T07:56:02.106Z,4.60
2017-06-25T07:58:31.300Z,4.73
2017-06-25T08:01:00.456Z,4.10
2017-06-25T08:03:29.617Z,5.57
2017-06-25T08:05:58.785Z,7.17
2017-06-25T08:08:27.938Z,5.07
2017-06-25T08:10:57.085Z,6.53
2017-06-25T08:13:26.232Z,4.70
2017-06-25T08:15:55.394Z,3.50
2017-06-25T08:18:25.482Z,4.20
2017-06-25T08:20:54.659Z,5.87
2017-06-25T08:23:23.804Z,4.00
2017-06-25T08:25:52.944Z,3.80
2017-06-25T08:28:22.134Z,4.17
2017-06-25T08:30:51.284Z,3.80
2017-06-25T08:33:20.430Z,4.33
2017-06-25T08:35:49.608Z,4.17
2017-06-25T08:38:29.918Z,4.37
2017-06-25T08:40:59.173Z,4.07
2017-06-25T08:43:28.316Z,3.57
2017-06-25T08:45:57.481Z,4.10
2017-06-25T08:48:26.671Z,4.00
2017-06-25T08:50:55.814Z,4.30
2017-06-25T08:53:24.967Z,3.93
2017-06-25T08:55:54.115Z,4.40
2017-06-25T08:58:23.270Z,4.53
2017-06-25T09:00:52.414Z,4.30
2017-06-25T09:03:21.560Z,3.77
2017-06-25T09:05:50.740Z,4.27
2017-06-25T09:08:19.884Z,4.17
2017-06-25T09:10:49.057Z,3.70
2017-06-25T09:13:18.227Z,4.10
2017-06-25T09:15:47.395Z,3.77
2017-06-25T09:18:16.559Z,4.50
2017-06-25T09:20:45.709Z,3.77
2017-06-25T09:23:14.909Z,4.50
2017-06-25T09:25:44.054Z,4.70
2017-06-25T09:28:13.221Z,4.20
2017-06-25T09:30:42.360Z,4.03
2017-06-25T09:33:11.542Z,4.30
2017-06-25T09:35:40.687Z,4.20
2017-06-25T09:38:09.845Z,3.90
2017-06-25T09:40:38.998Z,3.77
2017-06-25T09:43:08.152Z,3.60
2017-06-25T09:45:37.316Z,3.77
2017-06-25T09:48:06.473Z,3.90
2017-06-25T09:50:35.633Z,3.60
2017-06-25T09:53:04.786Z,3.60
2017-06-25T09:55:33.952Z,3.50
2017-06-25T09:58:03.106Z,3.63
2017-06-25T10:00:32.247Z,3.57
2017-06-25T10:03:01.390Z,3.03
2017-06-25T10:05:30.562Z,3.00
2017-06-25T10:07:59.718Z,3.57
2017-06-25T10:10:28.938Z,2.83
2017-06-25T10:12:58.127Z,2.90
2017-06-25T10:15:27.267Z,3.53
2017-06-25T10:17:56.419Z,2.93
2017-06-25T10:20:25.581Z,2.70
2017-06-25T10:22:54.725Z,2.90
2017-06-25T10:25:23.883Z,3.37
2017-06-25T10:27:53.031Z,3.00
2017-06-25T10:30:22.165Z,3.23
2017-06-25T10:32:51.337Z,2.87
2017-06-25T10:35:20.496Z,3.00
2017-06-25T10:37:49.648Z,3.30
2017-06-25T10:40:18.814Z,2.50
2017-06-25T10:42:47.960Z,3.17
2017-06-25T10:45:17.097Z,3.47
2017-06-25T10:47:46.294Z,2.50
2017-06-25T10:50:15.437Z,3.43
2017-06-25T10:52:44.599Z,3.33
2017-06-25T10:55:13.797Z,3.73
2017-06-25T10:57:43.054Z,2.60
2017-06-25T11:00:12.188Z,2.90
2017-06-25T11:02:41.342Z,3.10
2017-06-25T11:05:10.513Z,2.97
2017-06-25T11:07:39.716Z,2.17
2017-06-25T11:10:08.860Z,1.70
2017-06-25T11:12:37.994Z,1.80
2017-06-25T11:15:07.163Z,1.80
2017-06-25T11:17:36.311Z,2.30
2017-06-25T11:20:05.468Z,2.27
2017-06-25T11:22:34.623Z,1.93
2017-06-25T11:25:03.775Z,2.10
2017-06-25T11:27:32.921Z,2.20
2017-06-25T11:30:02.059Z,2.23
2017-06-25T11:32:31.231Z,2.33
2017-06-25T11:35:00.365Z,2.47
2017-06-25T11:37:29.512Z,2.00
2017-06-25T11:39:58.645Z,2.00
2017-06-25T11:42:27.795Z,2.60
2017-06-25T11:44:56.968Z,2.40
2017-06-25T11:47:26.122Z,2.20
2017-06-25T11:49:55.263Z,2.17
2017-06-25T11:52:24.422Z,2.63
2017-06-25T11:54:53.574Z,2.00
2017-06-25T11:57:22.716Z,2.20
2017-06-25T11:59:51.851Z,1.70
2017-06-25T12:02:21.106Z,1.90
2017-06-25T12:04:50.233Z,1.60
2017-06-25T12:07:19.446Z,1.83
2017-06-25T12:09:48.617Z,1.50
2017-06-25T12:12:17.793Z,1.57
2017-06-25T12:14:46.982Z,1.83
2017-06-25T12:17:16.116Z,1.70
2017-06-25T12:19:45.305Z,1.40
2017-06-25T12:22:14.456Z,1.80
2017-06-25T12:24:43.632Z,1.73
2017-06-25T12:27:12.806Z,2.30
2017-06-25T12:29:41.964Z,1.60
2017-06-25T12:32:11.109Z,2.00
2017-06-25T12:34:40.250Z,2.33
2017-06-25T12:37:09.407Z,2.13
2017-06-25T12:39:38.555Z,2.30
2017-06-25T12:42:07.701Z,2.20
2017-06-25T12:44:36.853Z,2.17
2017-06-25T12:47:05.994Z,2.10
2017-06-25T12:49:35.191Z,2.13
2017-06-25T12:52:04.350Z,2.00
2017-06-25T12:54:33.508Z,2.07
2017-06-25T12:57:02.675Z,2.20
2017-06-25T12:59:31.818Z,2.60
2017-06-25T13:02:00.967Z,2.20
2017-06-25T13:04:30.106Z,2.10
2017-06-25T13:06:59.274Z,2.23
2017-06-25T13:09:28.425Z,2.63
2017-06-25T13:11:57.575Z,2.47
2017-06-25T13:14:26.743Z,2.40
2017-06-25T13:16:55.909Z,2.20
2017-06-25T13:19:25.062Z,2.30
2017-06-25T13:21:54.211Z,2.33
2017-06-25T13:24:23.380Z,2.37
2017-06-25T13:26:52.534Z,2.70
2017-06-25T13:29:21.675Z,2.30
2017-06-25T13:31:50.854Z,2.60
2017-06-25T13:34:20.012Z,2.37
2017-06-25T13:36:49.155Z,2.37
2017-06-25T13:39:18.317Z,3.00
2017-06-25T13:41:47.465Z,2.33
2017-06-25T13:44:16.612Z,2.37
2017-06-25T13:46:45.794Z,2.73
2017-06-25T13:49:14.935Z,2.90
2017-06-25T13:51:44.103Z,2.70
2017-06-25T13:54:13.280Z,2.37
2017-06-25T13:56:42.438Z,2.57
2017-06-25T13:59:11.586Z,2.60
2017-06-25T14:01:40.731Z,2.33
2017-06-25T14:04:09.877Z,2.43
2017-06-25T14:06:39.058Z,2.30
2017-06-25T14:09:08.218Z,2.60
2017-06-25T14:11:37.371Z,2.27
2017-06-25T14:14:06.524Z,2.70
2017-06-25T14:16:35.695Z,2.30
2017-06-25T14:19:04.840Z,2.13
2017-06-25T14:21:34.007Z,2.20
2017-06-25T14:24:03.191Z,2.40
2017-06-25T14:26:32.369Z,2.23
2017-06-25T14:29:01.510Z,2.23
2017-06-25T14:31:30.678Z,2.20
2017-06-25T14:33:59.846Z,2.10
2017-06-25T14:36:29.084Z,2.30
2017-06-25T14:38:58.219Z,2.17
2017-06-25T14:41:27.379Z,2.20
2017-06-25T14:43:56.527Z,2.47
2017-06-25T14:46:25.671Z,2.40
2017-06-25T14:48:54.876Z,2.30
2017-06-25T14:51:24.005Z,2.73
2017-06-25T14:53:53.153Z,2.50
2017-06-25T14:56:22.306Z,2.20
2017-06-25T14:58:51.459Z,2.10
2017-06-25T15:01:20.624Z,2.03
2017-06-25T15:03:49.766Z,2.23
2017-06-25T15:06:18.916Z,2.80
2017-06-25T15:08:48.094Z,2.13
2017-06-25T15:11:17.254Z,2.10
2017-06-25T15:13:46.412Z,2.17
2017-06-25T15:16:15.554Z,2.10
2017-06-25T15:18:44.707Z,2.70
2017-06-25T15:21:13.885Z,2.20
2017-06-25T15:23:43.069Z,2.53
2017-06-25T15:26:12.217Z,2.23
2017-06-25T15:28:41.372Z,2.10
2017-06-25T15:31:10.523Z,2.20
2017-06-25T15:33:40.296Z,2.20
2017-06-25T15:36:09.426Z,2.37
2017-06-25T15:38:38.603Z,2.40
2017-06-25T15:41:07.771Z,2.67
2017-06-25T15:43:36.933Z,2.40
2017-06-25T15:46:06.083Z,2.53
2017-06-25T15:48:35.788Z,2.00
2017-06-25T15:51:05.009Z,2.10
2017-06-25T15:53:34.147Z,2.00
2017-06-25T15:56:03.295Z,2.03
2017-06-25T15:58:32.455Z,2.37
2017-06-25T16:01:01.607Z,2.00
2017-06-25T16:03:30.767Z,2.80
2017-06-25T16:05:59.939Z,2.07
2017-06-25T16:08:29.097Z,2.13
2017-06-25T16:10:58.265Z,2.00
2017-06-25T16:13:27.437Z,2.40
2017-06-25T16:15:56.594Z,2.13
2017-06-25T16:18:25.728Z,2.20
2017-06-25T16:20:54.898Z,2.00
2017-06-25T16:23:24.084Z,2.70
2017-06-25T16:25:53.231Z,1.77
2017-06-25T16:28:22.407Z,2.37
2017-06-25T16:30:51.551Z,1.80
2017-06-25T16:33:20.691Z,2.10
2017-06-25T16:35:49.857Z,2.27
2017-06-25T16:38:18.996Z,2.27
2017-06-25T16:40:48.175Z,2.43
2017-06-25T16:43:17.320Z,2.60
2017-06-25T16:45:47.616Z,2.40
2017-06-25T16:48:16.754Z,2.20
2017-06-25T16:50:45.918Z,2.50
2017-06-25T16:53:15.091Z,2.60
2017-06-25T16:55:44.244Z,2.40
2017-06-25T16:58:13.404Z,2.40
2017-06-25T17:00:42.557Z,2.47
2017-06-25T17:03:11.720Z,2.87
2017-06-25T17:05:40.870Z,2.20
2017-06-25T17:08:10.015Z,2.70
2017-06-25T17:10:39.181Z,2.43
2017-06-25T17:13:08.325Z,2.60
2017-06-25T17:15:37.476Z,2.40
2017-06-25T17:18:06.619Z,2.20
2017-06-25T17:20:35.763Z,1.97
2017-06-25T17:23:04.916Z,3.43
2017-06-25T17:25:34.098Z,2.27
2017-06-25T17:28:03.265Z,2.27
2017-06-25T17:30:32.413Z,2.60
2017-06-25T17:33:01.575Z,2.20
2017-06-25T17:35:30.728Z,2.43
2017-06-25T17:37:59.915Z,2.73
2017-06-25T17:40:29.099Z,2.37
2017-06-25T17:42:58.251Z,2.53
2017-06-25T17:45:27.407Z,2.30
2017-06-25T17:47:56.577Z,2.40
2017-06-25T17:50:25.740Z,2.37
2017-06-25T17:52:54.892Z,1.87
2017-06-25T17:55:24.042Z,2.50
2017-06-25T17:57:53.212Z,2.73
2017-06-25T18:00:22.363Z,2.13
2017-06-25T18:02:51.528Z,2.00
2017-06-25T18:05:20.686Z,2.30
2017-06-25T18:07:49.839Z,2.47
2017-06-25T18:10:19.001Z,2.67
2017-06-25T18:12:48.143Z,2.10
2017-06-25T18:15:17.319Z,2.30
2017-06-25T18:17:46.489Z,2.43
2017-06-25T18:20:15.641Z,2.63
2017-06-25T18:22:44.800Z,2.50
2017-06-25T18:25:13.967Z,2.40
2017-06-25T18:27:43.142Z,2.77
2017-06-25T18:30:12.274Z,2.67
2017-06-25T18:32:41.426Z,2.60
2017-06-25T18:35:10.599Z,2.20
2017-06-25T18:37:39.759Z,2.20
2017-06-25T18:40:08.919Z,1.83
2017-06-25T18:42:38.090Z,2.27
2017-06-25T18:45:07.239Z,1.90
2017-06-25T18:47:36.413Z,2.30
2017-06-25T18:50:05.579Z,2.10
2017-06-25T18:52:34.734Z,2.30
2017-06-25T18:55:03.931Z,1.80
2017-06-25T18:57:33.113Z,1.83
2017-06-25T19:00:02.257Z,2.30
2017-06-25T19:02:31.428Z,1.87
2017-06-25T19:05:00.576Z,2.23
2017-06-25T19:07:30.743Z,1.83
2017-06-25T19:09:59.894Z,2.10
2017-06-25T19:12:29.078Z,1.80
2017-06-25T19:14:58.270Z,2.13
2017-06-25T19:17:27.405Z,2.00
2017-06-25T19:19:56.570Z,2.17
2017-06-25T19:22:25.733Z,2.37
2017-06-25T19:24:54.891Z,2.33
2017-06-25T19:27:24.021Z,2.83
2017-06-25T19:29:53.831Z,2.30
2017-06-25T19:32:23.015Z,2.20
2017-06-25T19:34:52.163Z,2.17
2017-06-25T19:37:21.314Z,2.10
2017-06-25T19:39:50.456Z,1.93
2017-06-25T19:42:19.626Z,2.30
2017-06-25T19:44:48.784Z,2.07
2017-06-25T19:47:17.961Z,2.30
2017-06-25T19:49:47.143Z,2.07
2017-06-25T19:52:16.319Z,2.17
2017-06-25T19:54:45.485Z,2.20
2017-06-25T19:57:14.633Z,2.50
2017-06-25T19:59:43.783Z,2.23
2017-06-25T20:02:12.949Z,2.27
2017-06-25T20:04:42.099Z,2.47
2017-06-25T20:07:11.239Z,2.37
2017-06-25T20:09:40.406Z,2.07
2017-06-25T20:12:09.580Z,1.97
2017-06-25T20:14:38.780Z,2.50
2017-06-25T20:17:07.922Z,2.80
2017-06-25T20:19:37.149Z,2.83
2017-06-25T20:22:06.298Z,3.17
2017-06-25T20:24:35.451Z,3.57
2017-06-25T20:27:04.609Z,2.63
2017-06-25T20:29:33.763Z,2.70
2017-06-25T20:32:02.923Z,2.57
2017-06-25T20:34:32.079Z,2.27
2017-06-25T20:37:01.246Z,2.57
2017-06-25T20:39:30.408Z,2.30
2017-06-25T20:41:59.551Z,2.23
2017-06-25T20:44:28.712Z,2.67
2017-06-25T20:46:57.860Z,2.23
2017-06-25T20:49:27.020Z,2.30
2017-06-25T20:51:56.162Z,2.40
2017-06-25T20:54:25.338Z,2.60
2017-06-25T20:56:54.532Z,2.33
2017-06-25T20:59:23.693Z,1.80
2017-06-25T21:01:52.855Z,2.27
2017-06-25T21:04:22.029Z,2.40
2017-06-25T21:06:51.189Z,2.17
2017-06-25T21:09:20.382Z,2.70
2017-06-25T21:11:49.534Z,2.20
2017-06-25T21:14:18.686Z,2.43
2017-06-25T21:16:47.852Z,2.50
2017-06-25T21:19:17.016Z,2.50
2017-06-25T21:21:46.168Z,2.67
2017-06-25T21:24:15.326Z,2.10
2017-06-25T21:26:44.475Z,2.40
2017-06-25T21:29:13.626Z,2.23
2017-06-25T21:31:42.795Z,2.33
2017-06-25T21:34:11.935Z,2.30
2017-06-25T21:36:41.074Z,1.90
2017-06-25T21:39:10.234Z,2.07
2017-06-25T21:41:39.403Z,2.30
2017-06-25T21:44:08.544Z,2.20
2017-06-25T21:46:37.690Z,2.67
2017-06-25T21:49:06.842Z,2.23
2017-06-25T21:51:36.043Z,2.00
2017-06-25T21:54:05.198Z,2.00
2017-06-25T21:56:34.351Z,2.63
2017-06-25T21:59:03.515Z,2.73
2017-06-25T22:01:32.665Z,2.27
2017-06-25T22:04:01.871Z,2.40
2017-06-25T22:06:31.704Z,2.13
2017-06-25T22:09:00.873Z,2.27
2017-06-25T22:11:30.009Z,2.10
2017-06-25T22:13:59.157Z,2.00
2017-06-25T22:16:28.299Z,2.40
2017-06-25T22:18:57.477Z,2.40
2017-06-25T22:21:26.627Z,2.23
2017-06-25T22:23:55.781Z,2.03
2017-06-25T22:26:25.098Z,2.20
2017-06-25T22:28:54.246Z,2.37
2017-06-25T22:31:23.392Z,2.07
2017-06-25T22:33:52.552Z,1.80
2017-06-25T22:36:21.711Z,1.83
2017-06-25T22:38:50.871Z,1.90
2017-06-25T22:41:20.008Z,2.60
2017-06-25T22:43:49.167Z,2.00
2017-06-25T22:46:18.327Z,2.00
2017-06-25T22:48:47.466Z,1.90
2017-06-25T22:51:16.637Z,2.03
2017-06-25T22:53:45.793Z,2.20
2017-06-25T22:56:14.938Z,1.97
2017-06-25T22:58:44.084Z,1.90
2017-06-25T23:01:13.286Z,2.33
2017-06-25T23:03:42.433Z,1.90
2017-06-25T23:06:11.603Z,1.97
2017-06-25T23:08:40.760Z,2.30
2017-06-25T23:11:09.909Z,2.67
2017-06-25T23:13:39.063Z,2.20
2017-06-25T23:16:08.207Z,2.13
2017-06-25T23:18:37.697Z,2.30
2017-06-25T23:21:06.849Z,1.87
2017-06-25T23:23:35.982Z,2.10
2017-06-25T23:26:05.140Z,2.10
2017-06-25T23:28:34.295Z,2.40
2017-06-25T23:31:03.474Z,2.00
2017-06-25T23:33:32.626Z,2.90
2017-06-25T23:36:01.816Z,2.13
2017-06-25T23:38:30.976Z,2.17
2017-06-25T23:41:00.112Z,1.80
2017-06-25T23:43:29.259Z,1.90
2017-06-25T23:45:58.411Z,2.53
2017-06-25T23:48:27.559Z,2.27
2017-06-25T23:50:56.718Z,2.27
2017-06-25T23:53:25.855Z,2.13
2017-06-25T23:55:55.011Z,2.30
2017-06-25T23:58:24.216Z,2.80
